createdAt,value
2022-11-24T00:01:05.466Z,11.93
2022-11-24T00:03:32.778Z,12.15
2022-11-24T00:06:07.968Z,11.65
2022-11-24T00:08:36.040Z,11.68
2022-11-24T00:11:11.591Z,12.32
2022-11-24T00:13:39.800Z,14.77
2022-11-24T00:16:09.756Z,12.45
2022-11-24T00:18:37.250Z,12.60
2022-11-24T00:21:04.753Z,15.55
2022-11-24T00:23:32.322Z,24.05
2022-11-24T00:26:17.393Z,22.13
2022-11-24T00:28:45.395Z,18.17
2022-11-24T00:31:24.256Z,19.17
2022-11-24T00:33:53.734Z,18.75
2022-11-24T00:36:22.672Z,18.35
2022-11-24T00:38:58.288Z,16.60
2022-11-24T00:41:26.937Z,18.33
2022-11-24T00:43:54.776Z,17.20
2022-11-24T00:46:23.453Z,16.60
2022-11-24T00:48:51.234Z,16.77
2022-11-24T00:51:20.010Z,17.15
2022-11-24T00:53:47.620Z,16.58
2022-11-24T00:56:15.004Z,19.38
2022-11-24T00:58:42.241Z,19.52
2022-11-24T01:01:16.087Z,19.15
2022-11-24T01:03:43.560Z,18.08
2022-11-24T01:06:14.486Z,20.50
2022-11-24T01:08:42.125Z,21.48
2022-11-24T01:11:23.223Z,21.58
2022-11-24T01:13:54.574Z,20.13
2022-11-24T01:16:33.536Z,19.02
2022-11-24T01:19:01.292Z,17.50
2022-11-24T01:21:28.453Z,18.38
2022-11-24T01:23:56.052Z,21.45
2022-11-24T01:26:23.618Z,19.25
2022-11-24T01:28:56.022Z,20.80
2022-11-24T01:31:23.722Z,21.08
2022-11-24T01:33:51.307Z,22.85
2022-11-24T01:36:18.822Z,20.05
2022-11-24T01:38:46.041Z,23.65
2022-11-24T01:41:19.495Z,21.17
2022-11-24T01:43:47.421Z,21.60
2022-11-24T01:46:35.849Z,21.80
2022-11-24T01:49:09.235Z,23.35
2022-11-24T01:51:44.997Z,21.08
2022-11-24T01:54:18.946Z,25.85
2022-11-24T01:56:49.124Z,27.88
2022-11-24T01:59:20.071Z,26.92
2022-11-24T02:01:51.574Z,22.75
2022-11-24T02:04:24.207Z,26.67
2022-11-24T02:06:53.046Z,23.02
2022-11-24T02:09:28.712Z,25.35
2022-11-24T02:11:56.863Z,23.75
2022-11-24T02:14:25.228Z,23.42
2022-11-24T02:16:53.426Z,22.75
2022-11-24T02:19:55.506Z,20.27
2022-11-24T02:22:57.105Z,20.75
2022-11-24T02:25:27.083Z,23.08
2022-11-24T02:27:56.331Z,24.95
2022-11-24T02:30:24.286Z,22.33
2022-11-24T02:32:52.713Z,23.67
2022-11-24T02:35:19.996Z,24.25
2022-11-24T02:37:47.525Z,25.83
2022-11-24T02:40:25.258Z,23.13
2022-11-24T02:43:00.771Z,23.83
2022-11-24T02:45:29.585Z,24.55
2022-11-24T02:47:56.802Z,26.13
2022-11-24T02:50:24.387Z,26.50
2022-11-24T02:52:51.837Z,33.97
2022-11-24T02:55:20.536Z,27.63
2022-11-24T02:57:48.137Z,26.92
2022-11-24T03:00:15.980Z,27.27
2022-11-24T03:02:43.318Z,27.52
2022-11-24T03:05:13.034Z,28.48
2022-11-24T03:07:40.379Z,26.02
2022-11-24T03:10:08.608Z,30.05
2022-11-24T03:12:35.924Z,30.58
2022-11-24T03:15:03.828Z,28.33
2022-11-24T03:17:31.399Z,33.40
2022-11-24T03:20:04.657Z,31.20
2022-11-24T03:22:32.782Z,29.63
2022-11-24T03:25:00.067Z,29.48
2022-11-24T03:27:27.709Z,29.83
2022-11-24T03:29:54.888Z,28.00
2022-11-24T03:32:22.263Z,31.15
2022-11-24T03:34:49.444Z,38.53
2022-11-24T03:37:16.724Z,42.08
2022-11-24T03:39:44.029Z,39.90
2022-11-24T03:42:11.547Z,50.67
2022-11-24T03:44:38.677Z,43.58
2022-11-24T03:47:06.324Z,39.33
2022-11-24T03:49:35.250Z,34.90
2022-11-24T03:52:07.637Z,30.40
2022-11-24T03:54:35.869Z,30.00
2022-11-24T03:57:03.762Z,22.83
2022-11-24T03:59:30.980Z,24.50
2022-11-24T04:01:58.252Z,26.90
2022-11-24T04:04:25.484Z,24.30
2022-11-24T04:06:52.824Z,25.40
2022-11-24T04:09:20.375Z,27.83
2022-11-24T04:12:06.266Z,26.95
2022-11-24T04:14:33.758Z,27.65
2022-11-24T04:17:01.431Z,29.17
2022-11-24T04:19:28.974Z,30.85
2022-11-24T04:21:56.240Z,32.22
2022-11-24T04:24:23.796Z,37.03
2022-11-24T04:26:51.006Z,33.15
2022-11-24T04:29:18.230Z,31.92
2022-11-24T04:31:45.763Z,28.38
2022-11-24T04:34:13.325Z,25.58
2022-11-24T04:36:41.213Z,26.33
2022-11-24T04:39:24.421Z,27.08
2022-11-24T04:41:54.141Z,27.33
2022-11-24T04:44:21.757Z,27.02
2022-11-24T04:46:49.078Z,24.05
2022-11-24T04:49:16.407Z,23.80
2022-11-24T04:51:44.213Z,26.75
2022-11-24T04:54:13.047Z,27.83
2022-11-24T04:56:41.366Z,22.10
2022-11-24T04:59:12.752Z,25.73
2022-11-24T05:01:40.083Z,27.65
2022-11-24T05:04:07.669Z,25.98
2022-11-24T05:06:34.938Z,22.38
2022-11-24T05:09:02.533Z,25.27
2022-11-24T05:11:29.842Z,23.05
2022-11-24T05:13:57.332Z,27.45
2022-11-24T05:16:24.782Z,22.73
2022-11-24T05:18:52.057Z,24.10
2022-11-24T05:21:19.476Z,23.55
2022-11-24T05:23:46.683Z,23.83
2022-11-24T05:26:14.295Z,25.58
2022-11-24T05:28:41.559Z,25.33
2022-11-24T05:31:08.924Z,23.95
2022-11-24T05:33:37.140Z,25.00
2022-11-24T05:36:06.425Z,24.75
2022-11-24T05:38:34.202Z,23.45
2022-11-24T05:41:05.871Z,23.85
2022-11-24T05:43:33.343Z,22.15
2022-11-24T05:46:01.640Z,22.38
2022-11-24T05:48:29.315Z,22.05
2022-11-24T05:50:57.639Z,23.05
2022-11-24T05:53:26.573Z,23.25
2022-11-24T05:55:53.838Z,21.05
2022-11-24T05:58:21.676Z,22.60
2022-11-24T06:00:48.921Z,23.45
2022-11-24T06:03:16.127Z,25.52
2022-11-24T06:05:47.362Z,25.42
2022-11-24T06:08:14.878Z,26.25
2022-11-24T06:10:42.459Z,26.80
2022-11-24T06:13:10.063Z,25.35
2022-11-24T06:15:37.908Z,28.25
2022-11-24T06:18:05.386Z,29.65
2022-11-24T06:20:33.187Z,33.45
2022-11-24T06:23:01.367Z,37.22
2022-11-24T06:25:29.525Z,38.17
2022-11-24T06:27:57.216Z,43.20
2022-11-24T06:30:24.419Z,40.83
2022-11-24T06:32:55.706Z,45.28
2022-11-24T06:35:22.946Z,42.80
2022-11-24T06:37:50.220Z,44.95
2022-11-24T06:40:17.691Z,48.08
2022-11-24T06:42:51.574Z,46.10
2022-11-24T06:45:18.831Z,46.90
2022-11-24T06:47:46.110Z,47.75
2022-11-24T06:50:13.719Z,56.38
2022-11-24T06:52:40.893Z,60.22
2022-11-24T06:55:08.598Z,59.13
2022-11-24T06:57:35.947Z,58.00
2022-11-24T07:00:05.639Z,59.55
2022-11-24T07:02:33.243Z,53.95
2022-11-24T07:05:00.783Z,35.85
2022-11-24T07:07:27.990Z,34.10
2022-11-24T07:09:55.519Z,30.02
2022-11-24T07:12:24.452Z,28.63
2022-11-24T07:14:51.721Z,36.15
2022-11-24T07:17:18.804Z,38.50
2022-11-24T07:19:46.016Z,36.88
2022-11-24T07:22:13.430Z,38.55
2022-11-24T07:24:40.617Z,48.08
2022-11-24T07:27:07.809Z,60.75
2022-11-24T07:29:35.150Z,78.90
2022-11-24T07:32:05.733Z,82.97
2022-11-24T07:34:33.643Z,61.10
2022-11-24T07:37:01.258Z,53.17
2022-11-24T07:39:28.498Z,40.70
2022-11-24T07:41:55.622Z,39.58
2022-11-24T07:44:23.135Z,43.28
2022-11-24T07:46:51.591Z,40.78
2022-11-24T07:49:19.315Z,34.08
2022-11-24T07:51:46.539Z,34.42
2022-11-24T07:54:14.059Z,33.03
2022-11-24T07:56:41.608Z,28.98
2022-11-24T07:59:08.908Z,30.65
2022-11-24T08:01:36.120Z,35.75
2022-11-24T08:04:03.832Z,32.45
2022-11-24T08:06:38.639Z,30.02
2022-11-24T08:09:09.436Z,35.08
2022-11-24T08:11:37.042Z,31.70
2022-11-24T08:14:04.246Z,30.02
2022-11-24T08:16:32.364Z,37.33
2022-11-24T08:18:59.656Z,31.38
2022-11-24T08:21:27.204Z,33.85
2022-11-24T08:23:55.898Z,33.00
2022-11-24T08:26:25.159Z,34.17
2022-11-24T08:28:59.405Z,35.22
2022-11-24T08:31:33.598Z,37.05
2022-11-24T08:34:04.945Z,30.60
2022-11-24T08:36:32.451Z,31.85
2022-11-24T08:39:00.949Z,31.13
2022-11-24T08:41:29.300Z,33.55
2022-11-24T08:43:57.682Z,29.75
2022-11-24T08:46:25.207Z,37.25
2022-11-24T08:48:54.855Z,37.85
2022-11-24T08:51:25.198Z,41.60
2022-11-24T08:54:01.098Z,44.17
2022-11-24T08:56:29.989Z,46.38
2022-11-24T08:58:58.000Z,41.25
2022-11-24T09:01:25.952Z,43.25
2022-11-24T09:03:53.641Z,46.03
2022-11-24T09:06:25.155Z,42.50
2022-11-24T09:08:56.485Z,40.20
2022-11-24T09:11:24.790Z,32.95
2022-11-24T09:13:52.824Z,33.15
2022-11-24T09:16:22.896Z,29.65
2022-11-24T09:18:59.378Z,26.77
2022-11-24T09:21:27.072Z,30.75
2022-11-24T09:23:55.803Z,27.63
2022-11-24T09:26:26.822Z,27.98
2022-11-24T09:28:55.425Z,24.63
2022-11-24T09:31:28.444Z,27.80
2022-11-24T09:33:56.341Z,28.60
2022-11-24T09:36:25.915Z,27.77
2022-11-24T09:38:53.665Z,26.85
2022-11-24T09:41:32.670Z,27.23
2022-11-24T09:44:43.564Z,29.77
2022-11-24T09:47:43.669Z,30.88
2022-11-24T09:50:15.298Z,30.25
2022-11-24T09:53:05.688Z,31.38
2022-11-24T09:55:35.578Z,33.78
2022-11-24T09:58:26.439Z,33.40
2022-11-24T10:00:56.073Z,31.50
2022-11-24T10:03:42.051Z,31.95
2022-11-24T10:06:26.820Z,26.27
2022-11-24T10:08:59.886Z,30.60
2022-11-24T10:11:36.786Z,38.40
2022-11-24T10:14:32.285Z,35.30
2022-11-24T10:17:24.884Z,30.70
2022-11-24T10:20:06.556Z,29.05
2022-11-24T10:22:47.602Z,31.50
2022-11-24T10:25:30.784Z,28.50
2022-11-24T10:28:03.539Z,26.50
2022-11-24T10:30:31.311Z,27.92
2022-11-24T10:33:08.207Z,27.85
2022-11-24T10:35:39.892Z,27.80
2022-11-24T10:38:21.575Z,28.48
2022-11-24T10:40:58.048Z,25.30
2022-11-24T10:43:28.153Z,24.65
2022-11-24T10:46:17.055Z,27.48
2022-11-24T10:48:50.098Z,24.67
2022-11-24T10:51:41.902Z,29.55
2022-11-24T10:54:21.896Z,35.50
2022-11-24T10:56:52.112Z,36.35
2022-11-24T10:59:25.121Z,29.27
2022-11-24T11:01:53.651Z,23.88
2022-11-24T11:04:35.776Z,26.52
2022-11-24T11:07:16.447Z,25.02
2022-11-24T11:09:44.017Z,24.83
2022-11-24T11:15:31.139Z,27.10
2022-11-24T11:18:00.479Z,26.58
2022-11-24T11:20:33.840Z,25.38
2022-11-24T11:23:13.726Z,25.05
2022-11-24T11:25:41.434Z,27.40
2022-11-24T11:28:18.957Z,27.67
2022-11-24T11:31:20.283Z,33.88
2022-11-24T11:34:03.687Z,31.70
2022-11-24T11:36:37.815Z,33.35
2022-11-24T11:39:05.512Z,32.60
2022-11-24T11:41:40.560Z,37.78
2022-11-24T11:44:25.949Z,35.08
2022-11-24T11:46:56.035Z,30.75
2022-11-24T11:49:23.909Z,26.42
2022-11-24T11:52:04.153Z,29.05
2022-11-24T11:54:31.915Z,30.80
2022-11-24T11:57:36.318Z,33.85
2022-11-24T12:00:03.927Z,30.23
2022-11-24T12:03:09.064Z,29.23
2022-11-24T12:06:14.476Z,33.75
2022-11-24T12:09:17.890Z,29.73
2022-11-24T12:12:12.966Z,23.95
2022-11-24T12:15:04.584Z,23.02
2022-11-24T12:17:53.359Z,25.88
2022-11-24T12:20:39.004Z,29.65
2022-11-24T12:23:52.009Z,24.92
2022-11-24T12:26:22.937Z,22.85
2022-11-24T12:28:50.380Z,27.05
2022-11-24T12:31:53.182Z,27.42
2022-11-24T12:34:38.761Z,25.83
2022-11-24T12:37:40.515Z,26.40
2022-11-24T12:40:19.338Z,24.00
2022-11-24T12:42:46.899Z,24.58
2022-11-24T12:45:17.387Z,25.08
2022-11-24T12:48:24.499Z,25.55
2022-11-24T12:50:55.262Z,28.38
2022-11-24T12:53:28.732Z,26.48
2022-11-24T12:56:00.753Z,24.67
2022-11-24T12:58:50.627Z,24.73
2022-11-24T13:01:36.276Z,24.02
2022-11-24T13:04:37.231Z,24.73
2022-11-24T13:07:36.727Z,25.20
2022-11-24T13:10:46.900Z,26.42
2022-11-24T13:13:14.870Z,25.00
2022-11-24T13:18:53.615Z,28.05
2022-11-24T13:21:51.926Z,27.85
2022-11-24T13:24:20.198Z,33.20
2022-11-24T13:27:24.655Z,34.03
2022-11-24T13:29:53.312Z,28.80
2022-11-24T13:32:21.400Z,29.35
2022-11-24T13:34:55.249Z,27.02
2022-11-24T13:37:34.602Z,33.08
2022-11-24T13:40:12.581Z,30.20
2022-11-24T13:42:55.250Z,29.92
2022-11-24T13:45:49.455Z,30.42
2022-11-24T13:48:19.874Z,33.03
2022-11-24T13:50:50.193Z,31.23
2022-11-24T13:53:26.317Z,31.23
2022-11-24T13:56:00.966Z,35.13
2022-11-24T13:58:35.430Z,34.20
2022-11-24T14:01:19.651Z,33.13
2022-11-24T14:04:33.568Z,31.08
2022-11-24T14:07:09.028Z,32.97
2022-11-24T14:09:47.078Z,29.17
2022-11-24T14:12:34.366Z,32.83
2022-11-24T14:15:25.996Z,39.85
2022-11-24T14:17:53.181Z,37.60
2022-11-24T14:20:26.061Z,38.55
2022-11-24T14:22:54.426Z,41.10
2022-11-24T14:25:30.132Z,37.47
2022-11-24T14:27:57.781Z,36.03
2022-11-24T14:30:26.436Z,38.88
2022-11-24T14:33:01.686Z,35.38
2022-11-24T14:35:34.693Z,33.25
2022-11-24T14:38:04.373Z,29.15
2022-11-24T14:40:50.451Z,31.92
2022-11-24T14:43:22.818Z,27.45
2022-11-24T14:46:01.038Z,30.08
2022-11-24T14:48:34.248Z,28.73
2022-11-24T14:51:28.365Z,28.40
2022-11-24T14:54:01.843Z,29.48
2022-11-24T14:56:36.481Z,32.03
2022-11-24T14:59:04.591Z,30.60
2022-11-24T15:01:36.371Z,29.33
2022-11-24T15:04:38.777Z,32.72
2022-11-24T15:07:22.151Z,41.95
2022-11-24T15:12:30.872Z,29.95
2022-11-24T15:15:03.458Z,27.00
2022-11-24T15:17:31.561Z,30.17
2022-11-24T15:20:17.183Z,32.38
2022-11-24T15:22:45.243Z,26.63
2022-11-24T15:25:33.911Z,29.08
2022-11-24T15:28:01.507Z,28.75
2022-11-24T15:30:29.642Z,28.40
2022-11-24T15:32:58.641Z,28.52
2022-11-24T15:35:29.873Z,30.17
2022-11-24T15:37:57.308Z,26.98
2022-11-24T15:40:24.921Z,26.00
2022-11-24T15:42:59.659Z,25.30
2022-11-24T15:45:30.602Z,31.13
2022-11-24T15:47:57.761Z,32.00
2022-11-24T15:50:25.167Z,30.02
2022-11-24T15:52:52.526Z,29.73
2022-11-24T15:55:22.010Z,33.08
2022-11-24T15:57:49.743Z,25.58
2022-11-24T16:00:19.786Z,27.23
2022-11-24T16:02:47.627Z,25.38
2022-11-24T16:05:16.025Z,26.17
2022-11-24T16:07:43.807Z,22.13
2022-11-24T16:10:28.699Z,21.77
2022-11-24T16:12:56.194Z,22.95
2022-11-24T16:15:23.684Z,23.08
2022-11-24T16:17:50.884Z,24.48
2022-11-24T16:20:18.453Z,22.65
2022-11-24T16:22:46.022Z,25.25
2022-11-24T16:25:14.113Z,24.80
2022-11-24T16:27:41.981Z,21.17
2022-11-24T16:30:11.956Z,24.48
2022-11-24T16:32:39.524Z,24.98
2022-11-24T16:35:07.622Z,22.98
2022-11-24T16:37:35.520Z,24.27
2022-11-24T16:40:03.495Z,26.48
2022-11-24T16:42:31.204Z,23.73
2022-11-24T16:44:58.806Z,22.00
2022-11-24T16:47:26.028Z,22.30
2022-11-24T16:49:53.685Z,22.40
2022-11-24T16:52:21.558Z,22.30
2022-11-24T16:54:49.010Z,23.73
2022-11-24T16:57:19.591Z,24.73
2022-11-24T16:59:47.506Z,22.02
2022-11-24T17:02:14.852Z,22.30
2022-11-24T17:04:42.060Z,24.38
2022-11-24T17:07:09.435Z,25.73
2022-11-24T17:09:40.566Z,27.33
2022-11-24T17:12:08.184Z,24.17
2022-11-24T17:14:36.100Z,23.35
2022-11-24T17:17:07.026Z,24.65
2022-11-24T17:19:34.374Z,27.02
2022-11-24T17:22:02.111Z,29.65
2022-11-24T17:24:29.452Z,28.52
2022-11-24T17:26:56.831Z,28.48
2022-11-24T17:29:24.672Z,27.95
2022-11-24T17:31:51.911Z,27.23
2022-11-24T17:34:19.301Z,27.33
2022-11-24T17:36:46.872Z,22.00
2022-11-24T17:39:14.348Z,20.75
2022-11-24T17:41:41.918Z,21.17
2022-11-24T17:44:10.850Z,20.83
2022-11-24T17:46:39.071Z,20.30
2022-11-24T17:49:08.643Z,20.67
2022-11-24T17:51:35.781Z,18.98
2022-11-24T17:54:13.595Z,19.30
2022-11-24T17:56:50.287Z,20.30
2022-11-24T17:59:17.801Z,19.65
2022-11-24T18:01:45.082Z,21.02
2022-11-24T18:04:12.285Z,24.55
2022-11-24T18:06:39.921Z,23.02
2022-11-24T18:09:07.098Z,21.25
2022-11-24T18:11:34.380Z,24.50
2022-11-24T18:14:04.332Z,24.60
2022-11-24T18:16:34.385Z,22.50
2022-11-24T18:19:11.561Z,21.40
2022-11-24T18:21:44.050Z,25.23
2022-11-24T18:24:12.735Z,25.45
2022-11-24T18:26:41.929Z,24.77
2022-11-24T18:29:09.888Z,22.83
2022-11-24T18:31:38.157Z,23.35
2022-11-24T18:34:06.443Z,23.27
2022-11-24T18:36:34.978Z,23.52
2022-11-24T18:39:06.688Z,22.77
2022-11-24T18:41:34.298Z,21.05
2022-11-24T18:44:08.214Z,21.52
2022-11-24T18:49:03.070Z,22.17
2022-11-24T18:51:30.319Z,24.90
2022-11-24T18:54:02.418Z,24.77
2022-11-24T18:56:30.582Z,24.15
2022-11-24T18:58:57.972Z,25.05
2022-11-24T19:01:27.844Z,28.45
2022-11-24T19:03:58.239Z,27.45
2022-11-24T19:06:29.055Z,26.20
2022-11-24T19:08:56.735Z,24.90
2022-11-24T19:11:29.282Z,27.50
2022-11-24T19:13:57.422Z,25.33
2022-11-24T19:16:25.491Z,24.88
2022-11-24T19:18:54.210Z,27.63
2022-11-24T19:21:22.641Z,24.95
2022-11-24T19:23:50.623Z,26.27
2022-11-24T19:26:18.599Z,22.40
2022-11-24T19:28:46.244Z,25.60
2022-11-24T19:31:15.577Z,23.90
2022-11-24T19:33:43.473Z,22.65
2022-11-24T19:36:19.360Z,24.88
2022-11-24T19:38:51.720Z,22.17
2022-11-24T19:41:21.161Z,22.92
2022-11-24T19:43:49.106Z,26.35
2022-11-24T19:46:18.580Z,24.48
2022-11-24T19:48:50.375Z,25.10
2022-11-24T19:51:33.308Z,24.73
2022-11-24T19:54:00.961Z,24.23
2022-11-24T19:56:30.274Z,25.10
2022-11-24T19:58:57.617Z,24.00
2022-11-24T20:01:26.348Z,20.25
2022-11-24T20:04:08.256Z,19.52
2022-11-24T20:06:38.761Z,21.27
2022-11-24T20:09:08.881Z,23.75
2022-11-24T20:11:36.586Z,20.08
2022-11-24T20:14:04.604Z,20.95
2022-11-24T20:16:33.990Z,23.10
2022-11-24T20:19:07.793Z,22.13
2022-11-24T20:21:36.808Z,22.10
2022-11-24T20:24:05.509Z,23.13
2022-11-24T20:26:36.527Z,24.67
2022-11-24T20:29:04.632Z,22.50
2022-11-24T20:31:34.935Z,20.95
2022-11-24T20:34:03.781Z,24.25
2022-11-24T20:36:32.686Z,22.73
2022-11-24T20:39:01.711Z,23.98
2022-11-24T20:41:32.593Z,24.60
2022-11-24T20:44:02.245Z,21.55
2022-11-24T20:46:32.407Z,24.42
2022-11-24T20:49:00.466Z,20.60
2022-11-24T20:51:29.985Z,23.90
2022-11-24T20:54:00.128Z,21.63
2022-11-24T20:56:30.038Z,20.17
2022-11-24T20:58:57.829Z,20.52
2022-11-24T21:01:30.835Z,20.23
2022-11-24T21:03:59.820Z,19.77
2022-11-24T21:06:28.316Z,22.83
2022-11-24T21:09:00.504Z,22.42
2022-11-24T21:11:30.839Z,20.75
2022-11-24T21:13:58.384Z,22.58
2022-11-24T21:16:28.169Z,20.23
2022-11-24T21:18:58.109Z,21.40
2022-11-24T21:21:28.143Z,19.00
2022-11-24T21:23:55.389Z,20.35
2022-11-24T21:26:22.532Z,20.38
2022-11-24T21:28:50.132Z,17.20
2022-11-24T21:31:19.816Z,17.35
2022-11-24T21:33:49.149Z,19.73
2022-11-24T21:36:18.985Z,19.27
2022-11-24T21:38:53.542Z,21.83
2022-11-24T21:41:22.101Z,17.17
2022-11-24T21:43:50.317Z,21.92
2022-11-24T21:46:18.076Z,20.85
2022-11-24T21:48:46.495Z,20.35
2022-11-24T21:51:15.786Z,18.90
2022-11-24T21:53:44.796Z,21.85
2022-11-24T21:56:14.449Z,19.10
2022-11-24T21:58:45.862Z,22.35
2022-11-24T22:01:13.754Z,21.23
2022-11-24T22:03:41.143Z,21.10
2022-11-24T22:06:08.705Z,20.00
2022-11-24T22:08:36.349Z,20.48
2022-11-24T22:11:06.686Z,19.70
2022-11-24T22:13:34.567Z,21.50
2022-11-24T22:16:02.099Z,17.98
2022-11-24T22:18:38.225Z,21.58
2022-11-24T22:21:07.541Z,23.13
2022-11-24T22:23:36.036Z,21.85
2022-11-24T22:26:07.326Z,19.52
2022-11-24T22:28:35.653Z,17.60
2022-11-24T22:31:07.605Z,19.25
2022-11-24T22:33:35.700Z,19.90
2022-11-24T22:36:03.458Z,19.90
2022-11-24T22:38:31.449Z,18.90
2022-11-24T22:41:25.349Z,21.80
2022-11-24T22:43:53.885Z,20.47
2022-11-24T22:46:23.409Z,15.25
2022-11-24T22:48:54.520Z,16.70
2022-11-24T22:51:21.947Z,19.95
2022-11-24T22:53:51.323Z,17.70
2022-11-24T22:56:19.808Z,16.45
2022-11-24T22:58:47.615Z,15.18
2022-11-24T23:01:23.494Z,17.75
2022-11-24T23:03:56.091Z,17.38
2022-11-24T23:06:28.978Z,15.90
2022-11-24T23:08:56.974Z,15.48
2022-11-24T23:11:51.541Z,16.02
2022-11-24T23:14:18.795Z,17.55
2022-11-24T23:16:46.046Z,18.52
2022-11-24T23:19:13.357Z,15.77
2022-11-24T23:21:40.624Z,17.02
2022-11-24T23:24:09.038Z,16.65
2022-11-24T23:26:38.488Z,15.63
2022-11-24T23:29:06.376Z,15.68
2022-11-24T23:31:33.923Z,14.88
2022-11-24T23:34:03.034Z,15.07
2022-11-24T23:36:31.276Z,14.68
2022-11-24T23:39:11.501Z,14.52
2022-11-24T23:41:38.919Z,14.63
2022-11-24T23:44:06.475Z,13.55
2022-11-24T23:46:33.688Z,12.20
2022-11-24T23:49:00.899Z,11.98
2022-11-24T23:51:31.183Z,13.65
2022-11-24T23:54:00.172Z,15.63
2022-11-24T23:56:33.054Z,19.67
2022-11-24T23:59:01.942Z,19.08
